createdAt,value
2023-02-05T00:01:49.082Z,24.74
2023-02-05T00:04:15.471Z,24.76
2023-02-05T00:06:41.784Z,24.78
2023-02-05T00:09:08.095Z,24.79
2023-02-05T00:11:34.415Z,24.78
2023-02-05T00:14:00.826Z,24.79
2023-02-05T00:16:27.155Z,24.80
2023-02-05T00:18:53.534Z,24.80
2023-02-05T00:21:20.208Z,24.81
2023-02-05T00:23:46.707Z,24.84
2023-02-05T00:26:15.677Z,24.82
2023-02-05T00:28:42.016Z,24.88
2023-02-05T00:31:09.168Z,24.81
2023-02-05T00:33:35.560Z,24.82
2023-02-05T00:36:01.940Z,24.78
2023-02-05T00:38:28.247Z,24.74
2023-02-05T00:40:54.802Z,24.72
2023-02-05T00:43:21.112Z,24.71
2023-02-05T00:45:47.523Z,24.71
2023-02-05T00:48:13.850Z,24.68
2023-02-05T00:50:40.738Z,24.69
2023-02-05T00:53:07.061Z,24.70
2023-02-05T00:55:33.739Z,24.71
2023-02-05T00:58:01.197Z,24.70
2023-02-05T01:00:27.945Z,24.71
2023-02-05T01:02:55.027Z,24.66
2023-02-05T01:05:21.350Z,24.69
2023-02-05T01:07:47.676Z,24.59
2023-02-05T01:10:14.004Z,24.52
2023-02-05T01:12:40.316Z,24.51
2023-02-05T01:15:06.845Z,24.46
2023-02-05T01:17:33.171Z,24.44
2023-02-05T01:19:59.495Z,24.39
2023-02-05T01:22:25.810Z,24.37
2023-02-05T01:24:52.132Z,24.36
2023-02-05T01:27:18.516Z,24.32
2023-02-05T01:29:45.054Z,24.30
2023-02-05T01:32:11.368Z,24.30
2023-02-05T01:34:37.722Z,24.30
2023-02-05T01:37:04.297Z,24.28
2023-02-05T01:39:30.624Z,24.25
2023-02-05T01:41:56.936Z,24.22
2023-02-05T01:44:26.253Z,24.23
2023-02-05T01:46:52.952Z,24.19
2023-02-05T01:49:23.745Z,24.20
2023-02-05T01:51:50.176Z,24.19
2023-02-05T01:54:16.503Z,24.14
2023-02-05T01:56:43.702Z,24.14
2023-02-05T01:59:16.475Z,24.10
2023-02-05T02:01:42.821Z,24.10
2023-02-05T02:04:09.416Z,24.06
2023-02-05T02:06:35.760Z,24.04
2023-02-05T02:09:02.360Z,24.02
2023-02-05T02:11:29.179Z,23.98
2023-02-05T02:13:55.939Z,23.95
2023-02-05T02:16:22.328Z,23.92
2023-02-05T02:18:48.675Z,23.90
2023-02-05T02:21:33.592Z,23.85
2023-02-05T02:24:18.544Z,23.78
2023-02-05T02:27:08.138Z,23.78
2023-02-05T02:29:39.219Z,23.76
2023-02-05T02:32:20.651Z,23.73
2023-02-05T02:34:51.182Z,23.70
2023-02-05T02:37:25.012Z,23.67
2023-02-05T02:39:55.299Z,23.66
2023-02-05T02:42:23.360Z,23.64
2023-02-05T02:44:54.069Z,23.63
2023-02-05T02:47:20.984Z,23.58
2023-02-05T02:49:54.307Z,23.57
2023-02-05T02:52:20.820Z,23.55
2023-02-05T02:54:47.370Z,23.54
2023-02-05T02:57:13.688Z,23.53
2023-02-05T02:59:40.003Z,23.51
2023-02-05T03:02:06.414Z,23.47
2023-02-05T03:04:39.398Z,23.46
2023-02-05T03:07:06.651Z,23.44
2023-02-05T03:09:51.774Z,23.38
2023-02-05T03:12:18.255Z,23.38
2023-02-05T03:14:44.585Z,23.34
2023-02-05T03:17:18.419Z,23.30
2023-02-05T03:19:45.380Z,23.26
2023-02-05T03:22:11.929Z,23.25
2023-02-05T03:24:38.260Z,23.20
2023-02-05T03:27:04.656Z,23.19
2023-02-05T03:29:32.261Z,23.17
2023-02-05T03:32:21.138Z,23.16
2023-02-05T03:34:53.584Z,23.15
2023-02-05T03:37:22.112Z,23.13
2023-02-05T03:39:58.512Z,23.09
2023-02-05T03:42:43.513Z,23.06
2023-02-05T03:45:20.844Z,23.04
2023-02-05T03:47:49.839Z,23.01
2023-02-05T03:50:16.068Z,22.98
2023-02-05T03:52:43.807Z,22.94
2023-02-05T03:55:20.262Z,22.94
2023-02-05T03:57:49.764Z,22.91
2023-02-05T04:00:16.082Z,22.90
2023-02-05T04:02:42.656Z,22.87
2023-02-05T04:05:08.976Z,22.85
2023-02-05T04:07:35.539Z,22.82
2023-02-05T04:10:01.851Z,22.80
2023-02-05T04:12:28.227Z,22.76
2023-02-05T04:14:54.602Z,22.70
2023-02-05T04:17:20.940Z,22.71
2023-02-05T04:19:47.243Z,22.67
2023-02-05T04:22:13.581Z,22.65
2023-02-05T04:24:39.915Z,22.64
2023-02-05T04:27:06.783Z,22.57
2023-02-05T04:29:33.122Z,22.57
2023-02-05T04:31:59.460Z,22.54
2023-02-05T04:34:25.775Z,22.54
2023-02-05T04:36:52.095Z,22.52
2023-02-05T04:39:18.426Z,22.48
2023-02-05T04:41:44.761Z,22.48
2023-02-05T04:44:11.072Z,22.46
2023-02-05T04:46:37.422Z,22.45
2023-02-05T04:49:03.727Z,22.42
2023-02-05T04:51:30.051Z,22.37
2023-02-05T04:53:56.384Z,22.39
2023-02-05T04:56:22.778Z,22.36
2023-02-05T04:58:49.097Z,22.37
2023-02-05T05:01:16.198Z,22.37
2023-02-05T05:03:42.561Z,22.38
2023-02-05T05:06:08.871Z,22.40
2023-02-05T05:08:35.192Z,22.38
2023-02-05T05:11:06.245Z,22.40
2023-02-05T05:13:33.431Z,22.37
2023-02-05T05:15:59.781Z,22.36
2023-02-05T05:18:26.122Z,22.35
2023-02-05T05:20:52.437Z,22.32
2023-02-05T05:23:18.769Z,22.31
2023-02-05T05:25:45.633Z,22.27
2023-02-05T05:28:12.005Z,22.24
2023-02-05T05:30:41.609Z,22.22
2023-02-05T05:33:07.954Z,22.19
2023-02-05T05:35:34.734Z,22.16
2023-02-05T05:38:01.219Z,22.10
2023-02-05T05:40:46.071Z,22.08
2023-02-05T05:43:31.532Z,22.06
2023-02-05T05:45:57.903Z,22.04
2023-02-05T05:48:24.257Z,22.03
2023-02-05T05:50:50.576Z,22.01
2023-02-05T05:53:16.971Z,21.98
2023-02-05T05:55:43.270Z,21.95
2023-02-05T05:58:09.779Z,21.92
2023-02-05T06:00:36.408Z,21.91
2023-02-05T06:03:02.752Z,21.90
2023-02-05T06:05:29.072Z,21.92
2023-02-05T06:07:55.398Z,21.94
2023-02-05T06:10:21.780Z,21.95
2023-02-05T06:12:48.146Z,21.98
2023-02-05T06:15:14.465Z,21.95
2023-02-05T06:17:40.822Z,21.95
2023-02-05T06:20:07.181Z,21.91
2023-02-05T06:22:33.522Z,21.88
2023-02-05T06:24:59.835Z,21.87
2023-02-05T06:27:26.191Z,21.85
2023-02-05T06:29:52.502Z,21.81
2023-02-05T06:32:18.893Z,21.80
2023-02-05T06:34:45.479Z,21.82
2023-02-05T06:37:11.807Z,21.82
2023-02-05T06:39:38.116Z,21.83
2023-02-05T06:42:04.464Z,21.81
2023-02-05T06:44:30.794Z,21.81
2023-02-05T06:46:57.129Z,21.79
2023-02-05T06:49:23.427Z,21.78
2023-02-05T06:51:49.754Z,21.76
2023-02-05T06:54:16.062Z,21.74
2023-02-05T06:56:42.382Z,21.71
2023-02-05T06:59:08.698Z,21.68
2023-02-05T07:01:35.299Z,21.65
2023-02-05T07:04:01.641Z,21.65
2023-02-05T07:06:28.965Z,21.62
2023-02-05T07:08:55.269Z,21.62
2023-02-05T07:11:21.747Z,21.59
2023-02-05T07:13:48.072Z,21.57
2023-02-05T07:16:14.541Z,21.58
2023-02-05T07:18:40.895Z,21.61
2023-02-05T07:21:08.118Z,21.60
2023-02-05T07:23:34.448Z,21.61
2023-02-05T07:26:10.775Z,21.60
2023-02-05T07:28:37.099Z,21.59
2023-02-05T07:31:05.314Z,21.59
2023-02-05T07:33:31.692Z,21.56
2023-02-05T07:35:58.011Z,21.54
2023-02-05T07:38:25.087Z,21.53
2023-02-05T07:40:51.406Z,21.51
2023-02-05T07:43:17.725Z,21.47
2023-02-05T07:45:44.034Z,21.47
2023-02-05T07:48:10.359Z,21.46
2023-02-05T07:50:36.736Z,21.44
2023-02-05T07:53:03.081Z,21.44
2023-02-05T07:55:29.407Z,21.45
2023-02-05T07:57:55.787Z,21.47
2023-02-05T08:00:22.160Z,21.46
2023-02-05T08:02:48.565Z,21.51
2023-02-05T08:05:14.877Z,21.55
2023-02-05T08:07:41.225Z,21.55
2023-02-05T08:10:07.631Z,21.56
2023-02-05T08:12:34.095Z,21.55
2023-02-05T08:15:00.795Z,21.54
2023-02-05T08:17:27.148Z,21.55
2023-02-05T08:19:53.460Z,21.54
2023-02-05T08:22:19.794Z,21.54
2023-02-05T08:24:46.102Z,21.51
2023-02-05T08:27:12.403Z,21.46
2023-02-05T08:29:38.724Z,21.62
2023-02-05T08:32:05.024Z,21.95
2023-02-05T08:34:31.342Z,22.05
2023-02-05T08:36:57.763Z,22.27
2023-02-05T08:39:25.996Z,22.30
2023-02-05T08:41:52.371Z,22.37
2023-02-05T08:44:18.686Z,22.43
2023-02-05T08:46:50.150Z,22.53
2023-02-05T08:49:16.995Z,22.59
2023-02-05T08:51:43.370Z,22.65
2023-02-05T08:54:13.038Z,22.64
2023-02-05T08:56:40.117Z,22.52
2023-02-05T08:59:06.482Z,22.48
2023-02-05T09:01:33.342Z,22.34
2023-02-05T09:03:59.938Z,22.28
2023-02-05T09:06:26.573Z,22.28
2023-02-05T09:08:52.905Z,22.29
2023-02-05T09:11:22.809Z,22.30
2023-02-05T09:13:49.314Z,22.27
2023-02-05T09:16:15.705Z,22.23
2023-02-05T09:18:42.216Z,22.25
2023-02-05T09:21:08.793Z,22.26
2023-02-05T09:23:35.123Z,22.21
2023-02-05T09:26:01.491Z,22.17
2023-02-05T09:28:27.820Z,22.13
2023-02-05T09:30:54.196Z,22.15
2023-02-05T09:33:20.563Z,22.26
2023-02-05T09:35:46.900Z,22.35
2023-02-05T09:38:13.685Z,22.40
2023-02-05T09:41:00.027Z,22.44
2023-02-05T09:43:44.743Z,22.46
2023-02-05T09:46:12.494Z,22.44
2023-02-05T09:49:09.184Z,22.45
2023-02-05T09:51:36.412Z,22.44
2023-02-05T09:54:10.287Z,22.44
2023-02-05T09:56:38.610Z,22.39
2023-02-05T09:59:06.375Z,22.37
2023-02-05T10:01:51.430Z,22.38
2023-02-05T10:04:17.897Z,22.43
2023-02-05T10:07:05.794Z,22.48
2023-02-05T10:09:44.515Z,22.50
2023-02-05T10:12:23.315Z,22.64
2023-02-05T10:15:04.155Z,22.65
2023-02-05T10:17:43.348Z,22.69
2023-02-05T10:20:15.503Z,22.64
2023-02-05T10:23:01.737Z,22.67
2023-02-05T10:25:48.369Z,22.69
2023-02-05T10:28:33.505Z,22.60
2023-02-05T10:31:10.069Z,22.54
2023-02-05T10:34:01.264Z,22.48
2023-02-05T10:36:27.651Z,22.44
2023-02-05T10:38:57.228Z,22.43
2023-02-05T10:41:28.279Z,22.47
2023-02-05T10:44:13.686Z,22.60
2023-02-05T10:46:40.052Z,22.63
2023-02-05T10:49:13.600Z,22.65
2023-02-05T10:51:40.493Z,22.60
2023-02-05T10:54:12.440Z,22.58
2023-02-05T10:56:38.756Z,22.55
2023-02-05T10:59:07.103Z,22.53
2023-02-05T11:01:41.455Z,22.52
2023-02-05T11:04:10.276Z,22.50
2023-02-05T11:06:37.979Z,22.49
2023-02-05T11:09:05.570Z,22.49
2023-02-05T11:11:31.916Z,22.60
2023-02-05T11:14:01.625Z,22.64
2023-02-05T11:16:35.193Z,22.62
2023-02-05T11:19:01.571Z,22.59
2023-02-05T11:21:46.700Z,22.59
2023-02-05T11:24:22.029Z,22.56
2023-02-05T11:26:49.407Z,22.55
2023-02-05T11:29:18.922Z,22.55
2023-02-05T11:31:45.323Z,22.53
2023-02-05T11:34:13.459Z,22.52
2023-02-05T11:36:46.804Z,22.50
2023-02-05T11:39:35.877Z,22.48
2023-02-05T11:42:31.689Z,22.47
2023-02-05T11:44:59.016Z,22.44
2023-02-05T11:47:29.074Z,22.42
2023-02-05T11:49:55.456Z,22.41
2023-02-05T11:52:26.174Z,22.48
2023-02-05T11:54:52.499Z,22.52
2023-02-05T11:57:19.624Z,22.56
2023-02-05T11:59:55.148Z,22.56
2023-02-05T12:02:30.817Z,22.57
2023-02-05T12:05:03.685Z,22.56
2023-02-05T12:07:31.423Z,22.55
2023-02-05T12:09:59.741Z,22.54
2023-02-05T12:12:35.257Z,22.52
2023-02-05T12:15:04.516Z,22.51
2023-02-05T12:17:41.444Z,22.60
2023-02-05T12:20:15.983Z,22.58
2023-02-05T12:22:50.215Z,22.64
2023-02-05T12:25:27.545Z,22.68
2023-02-05T12:28:05.905Z,22.72
2023-02-05T12:30:35.285Z,22.74
2023-02-05T12:33:04.626Z,22.74
2023-02-05T12:35:42.816Z,22.72
2023-02-05T12:38:21.064Z,22.73
2023-02-05T12:41:23.199Z,22.69
2023-02-05T12:43:49.827Z,22.69
2023-02-05T12:46:16.159Z,22.68
2023-02-05T12:49:01.165Z,22.63
2023-02-05T12:51:32.062Z,22.60
2023-02-05T12:54:17.174Z,22.55
2023-02-05T12:56:52.830Z,22.53
2023-02-05T12:59:19.082Z,22.49
2023-02-05T13:01:53.458Z,22.57
2023-02-05T13:04:25.193Z,22.56
2023-02-05T13:06:52.967Z,22.57
2023-02-05T13:09:20.228Z,22.59
2023-02-05T13:11:48.505Z,22.59
2023-02-05T13:14:19.963Z,22.57
2023-02-05T13:16:50.131Z,22.56
2023-02-05T13:19:19.582Z,22.56
2023-02-05T13:22:15.302Z,22.54
2023-02-05T13:25:09.817Z,22.53
2023-02-05T13:28:01.485Z,22.51
2023-02-05T13:30:32.370Z,22.49
2023-02-05T13:32:59.118Z,22.49
2023-02-05T13:35:25.700Z,22.50
2023-02-05T13:37:52.740Z,22.53
2023-02-05T13:40:21.801Z,22.56
2023-02-05T13:43:03.436Z,22.59
2023-02-05T13:45:48.489Z,22.58
2023-02-05T13:48:14.770Z,22.49
2023-02-05T13:51:05.262Z,22.51
2023-02-05T13:53:58.052Z,22.51
2023-02-05T13:56:30.541Z,22.48
2023-02-05T13:59:10.344Z,22.45
2023-02-05T14:01:40.132Z,22.41
2023-02-05T14:04:18.751Z,22.39
2023-02-05T14:06:46.767Z,22.36
2023-02-05T14:09:21.218Z,22.31
2023-02-05T14:11:55.676Z,22.29
2023-02-05T14:14:23.358Z,22.34
2023-02-05T14:16:51.483Z,22.40
2023-02-05T14:19:22.576Z,22.45
2023-02-05T14:21:49.690Z,22.45
2023-02-05T14:24:34.864Z,22.46
2023-02-05T14:27:01.185Z,22.45
2023-02-05T14:29:43.636Z,22.44
2023-02-05T14:32:13.175Z,22.42
2023-02-05T14:34:39.420Z,22.42
2023-02-05T14:37:05.966Z,22.40
2023-02-05T14:39:33.626Z,22.39
2023-02-05T14:42:00.871Z,22.36
2023-02-05T14:44:28.377Z,22.38
2023-02-05T14:47:02.448Z,22.39
2023-02-05T14:49:30.257Z,22.44
2023-02-05T14:52:00.173Z,22.44
2023-02-05T14:54:28.230Z,22.47
2023-02-05T14:57:07.594Z,22.50
2023-02-05T14:59:48.792Z,22.51
2023-02-05T15:02:33.946Z,22.46
2023-02-05T15:05:00.299Z,22.52
2023-02-05T15:07:26.612Z,22.69
2023-02-05T15:10:00.331Z,22.88
2023-02-05T15:12:30.155Z,23.00
2023-02-05T15:14:56.903Z,23.25
2023-02-05T15:17:29.213Z,23.37
2023-02-05T15:19:56.398Z,23.51
2023-02-05T15:22:26.419Z,23.72
2023-02-05T15:24:53.629Z,23.81
2023-02-05T15:27:21.538Z,23.78
2023-02-05T15:29:48.527Z,23.81
2023-02-05T15:32:18.491Z,23.83
2023-02-05T15:34:53.663Z,23.86
2023-02-05T15:37:21.370Z,23.94
2023-02-05T15:39:54.817Z,23.93
2023-02-05T15:42:28.346Z,23.94
2023-02-05T15:44:54.654Z,23.88
2023-02-05T15:47:21.766Z,23.88
2023-02-05T15:49:49.682Z,23.93
2023-02-05T15:52:20.303Z,23.87
2023-02-05T15:54:46.630Z,23.83
2023-02-05T15:57:18.032Z,23.83
2023-02-05T15:59:44.353Z,23.82
2023-02-05T16:02:14.940Z,23.80
2023-02-05T16:04:41.279Z,23.80
2023-02-05T16:07:24.230Z,23.83
2023-02-05T16:09:52.913Z,23.85
2023-02-05T16:12:20.160Z,23.83
2023-02-05T16:14:47.896Z,23.85
2023-02-05T16:17:16.336Z,23.85
2023-02-05T16:19:42.583Z,23.86
2023-02-05T16:22:14.903Z,23.85
2023-02-05T16:24:41.280Z,23.83
2023-02-05T16:27:15.148Z,23.84
2023-02-05T16:29:49.826Z,23.80
2023-02-05T16:32:27.932Z,23.78
2023-02-05T16:34:56.307Z,23.74
2023-02-05T16:37:23.793Z,23.76
2023-02-05T16:39:53.450Z,23.78
2023-02-05T16:42:26.006Z,23.81
2023-02-05T16:45:02.982Z,23.82
2023-02-05T16:47:29.308Z,23.82
2023-02-05T16:49:55.619Z,23.83
2023-02-05T16:52:35.310Z,23.84
2023-02-05T16:55:05.593Z,23.81
2023-02-05T16:57:32.629Z,24.05
2023-02-05T17:00:17.231Z,24.08
2023-02-05T17:02:44.606Z,24.08
2023-02-05T17:05:23.822Z,24.07
2023-02-05T17:07:54.302Z,24.07
2023-02-05T17:10:21.032Z,24.05
2023-02-05T17:12:57.095Z,24.12
2023-02-05T17:15:27.893Z,24.15
2023-02-05T17:18:05.180Z,24.23
2023-02-05T17:20:33.255Z,24.17
2023-02-05T17:22:59.816Z,24.23
2023-02-05T17:25:26.451Z,24.21
2023-02-05T17:27:52.814Z,24.19
2023-02-05T17:30:19.144Z,24.16
2023-02-05T17:32:46.912Z,24.13
2023-02-05T17:35:13.688Z,24.12
2023-02-05T17:37:40.013Z,24.08
2023-02-05T17:40:06.808Z,24.09
2023-02-05T17:42:33.178Z,24.07
2023-02-05T17:44:59.589Z,24.28
2023-02-05T17:47:25.922Z,24.35
2023-02-05T17:49:52.281Z,24.52
2023-02-05T17:52:18.624Z,24.68
2023-02-05T17:54:46.450Z,24.74
2023-02-05T17:57:16.910Z,24.56
2023-02-05T17:59:44.789Z,24.44
2023-02-05T18:02:11.556Z,24.41
2023-02-05T18:04:37.964Z,24.38
2023-02-05T18:07:04.292Z,24.15
2023-02-05T18:09:30.610Z,24.33
2023-02-05T18:11:56.945Z,24.46
2023-02-05T18:14:23.594Z,24.61
2023-02-05T18:16:49.965Z,24.69
2023-02-05T18:19:16.306Z,24.71
2023-02-05T18:21:42.666Z,24.69
2023-02-05T18:24:09.039Z,24.68
2023-02-05T18:26:35.437Z,24.69
2023-02-05T18:29:01.764Z,24.63
2023-02-05T18:31:28.242Z,24.62
2023-02-05T18:33:54.666Z,24.57
2023-02-05T18:36:21.072Z,24.55
2023-02-05T18:38:47.393Z,24.54
2023-02-05T18:41:14.683Z,24.49
2023-02-05T18:43:41.008Z,24.49
2023-02-05T18:46:11.117Z,24.50
2023-02-05T18:48:37.790Z,24.53
2023-02-05T18:51:04.943Z,24.51
2023-02-05T18:53:31.980Z,24.50
2023-02-05T18:56:02.073Z,24.45
2023-02-05T18:58:28.398Z,24.46
2023-02-05T19:00:54.732Z,24.44
2023-02-05T19:03:21.065Z,24.32
2023-02-05T19:05:47.378Z,24.20
2023-02-05T19:08:13.686Z,24.17
2023-02-05T19:10:39.996Z,24.14
2023-02-05T19:13:06.366Z,24.07
2023-02-05T19:15:32.798Z,24.05
2023-02-05T19:17:59.106Z,24.02
2023-02-05T19:20:25.557Z,24.03
2023-02-05T19:22:52.357Z,24.06
2023-02-05T19:25:18.735Z,24.05
2023-02-05T19:27:45.076Z,24.05
2023-02-05T19:30:14.140Z,24.03
2023-02-05T19:32:40.460Z,23.97
2023-02-05T19:35:06.907Z,23.94
2023-02-05T19:37:33.261Z,23.94
2023-02-05T19:39:59.582Z,23.91
2023-02-05T19:42:27.217Z,23.90
2023-02-05T19:44:53.563Z,23.90
2023-02-05T19:47:21.075Z,23.91
2023-02-05T19:49:47.492Z,23.91
2023-02-05T19:52:13.834Z,23.92
2023-02-05T19:54:40.148Z,23.94
2023-02-05T19:57:06.483Z,23.96
2023-02-05T19:59:33.365Z,24.04
2023-02-05T20:01:59.692Z,24.09
2023-02-05T20:04:26.128Z,24.27
2023-02-05T20:06:55.919Z,24.30
2023-02-05T20:09:22.227Z,24.32
2023-02-05T20:11:48.904Z,24.35
2023-02-05T20:14:15.555Z,24.36
2023-02-05T20:16:42.235Z,24.54
2023-02-05T20:19:09.996Z,24.57
2023-02-05T20:21:36.378Z,24.62
2023-02-05T20:24:04.486Z,24.65
2023-02-05T20:26:31.012Z,24.67
2023-02-05T20:29:16.120Z,24.73
2023-02-05T20:31:43.418Z,24.64
2023-02-05T20:34:10.819Z,24.61
2023-02-05T20:36:37.153Z,24.61
2023-02-05T20:39:04.434Z,24.61
2023-02-05T20:41:30.746Z,24.63
2023-02-05T20:43:57.214Z,24.72
2023-02-05T20:46:23.822Z,24.74
2023-02-05T20:48:50.206Z,24.80
2023-02-05T20:51:17.043Z,24.82
2023-02-05T20:53:43.477Z,24.81
2023-02-05T20:56:10.570Z,24.83
2023-02-05T20:58:36.890Z,24.83
2023-02-05T21:01:10.261Z,24.85
2023-02-05T21:03:36.757Z,24.83
2023-02-05T21:06:03.083Z,24.85
2023-02-05T21:08:29.447Z,24.87
2023-02-05T21:10:55.778Z,24.85
2023-02-05T21:13:22.105Z,24.85
2023-02-05T21:15:54.870Z,24.82
2023-02-05T21:18:21.245Z,24.81
2023-02-05T21:20:47.650Z,24.80
2023-02-05T21:23:13.977Z,24.79
2023-02-05T21:25:40.285Z,24.78
2023-02-05T21:28:06.676Z,24.73
2023-02-05T21:30:33.135Z,24.71
2023-02-05T21:32:59.570Z,24.70
2023-02-05T21:35:25.886Z,24.67
2023-02-05T21:37:52.264Z,24.64
2023-02-05T21:40:18.668Z,24.66
2023-02-05T21:42:45.011Z,24.62
2023-02-05T21:45:11.332Z,24.62
2023-02-05T21:47:37.658Z,24.61
2023-02-05T21:50:04.118Z,24.60
2023-02-05T21:52:30.453Z,24.60
2023-02-05T21:54:56.789Z,24.57
2023-02-05T21:57:24.309Z,24.36
2023-02-05T21:59:51.060Z,24.37
2023-02-05T22:02:17.432Z,24.29
2023-02-05T22:04:43.847Z,24.25
2023-02-05T22:07:10.168Z,24.40
2023-02-05T22:09:36.475Z,24.43
2023-02-05T22:12:03.805Z,24.50
2023-02-05T22:14:30.583Z,24.48
2023-02-05T22:16:57.089Z,24.44
2023-02-05T22:19:24.247Z,24.43
2023-02-05T22:21:50.554Z,24.43
2023-02-05T22:24:17.589Z,24.42
2023-02-05T22:26:44.034Z,24.42
2023-02-05T22:29:14.235Z,24.40
2023-02-05T22:31:40.972Z,24.39
2023-02-05T22:34:07.349Z,24.36
2023-02-05T22:36:33.744Z,24.31
2023-02-05T22:39:00.130Z,24.28
2023-02-05T22:41:27.474Z,24.27
2023-02-05T22:43:54.359Z,24.28
2023-02-05T22:46:21.336Z,24.23
2023-02-05T22:48:48.046Z,24.20
2023-02-05T22:51:15.264Z,23.96
2023-02-05T22:53:41.664Z,23.69
2023-02-05T22:56:08.608Z,23.52
2023-02-05T22:58:34.960Z,23.41
2023-02-05T23:01:10.819Z,23.39
2023-02-05T23:03:37.383Z,23.37
2023-02-05T23:06:13.766Z,23.36
2023-02-05T23:08:40.094Z,23.35
2023-02-05T23:11:07.024Z,23.32
2023-02-05T23:13:33.370Z,23.30
2023-02-05T23:18:25.887Z,23.25
2023-02-05T23:20:52.188Z,23.20
2023-02-05T23:23:19.232Z,23.19
2023-02-05T23:25:49.705Z,23.18
2023-02-05T23:28:16.128Z,23.16
2023-02-05T23:30:42.784Z,23.12
2023-02-05T23:33:09.197Z,23.09
2023-02-05T23:35:35.810Z,23.07
2023-02-05T23:38:02.391Z,23.06
2023-02-05T23:40:28.705Z,23.03
2023-02-05T23:42:55.136Z,23.02
2023-02-05T23:45:21.451Z,22.98
2023-02-05T23:47:47.759Z,22.96
2023-02-05T23:50:17.001Z,22.93
2023-02-05T23:52:43.326Z,22.90
2023-02-05T23:55:09.646Z,22.87
2023-02-05T23:57:35.954Z,22.83
